Time;durP1;ratioP1;P1;durP2;ratioP2;P2;SDS_P1;SDS_P2;PMS_P1;PMS_P2;Temp;Humidity;BMP_temperature;BMP_pressure;BME280_temperature;BME280_humidity;BME280_pressure;Samples;Min_cycle;Max_cycle;Signal;HPM_P1;HPM_P2
2022/05/24 00:00:34;;;;;;;6.45;2.88;;;13.30;99.90;;;;;;5016308;28;20078;-66
2022/05/24 00:03:00;;;;;;;9.07;2.50;;;13.30;99.90;;;;;;5016206;28;20030;-66
2022/05/24 00:05:29;;;;;;;7.25;2.70;;;13.20;99.90;;;;;;5016801;28;20101;-67
2022/05/24 00:07:55;;;;;;;7.97;2.80;;;13.20;99.90;;;;;;5017016;28;20037;-67
2022/05/24 00:10:29;;;;;;;9.20;2.72;;;13.10;99.90;;;;;;5016349;28;20416;-67
2022/05/24 00:12:55;;;;;;;10.13;2.67;;;13.10;99.90;;;;;;5017059;28;20045;-67
2022/05/24 00:15:23;;;;;;;8.80;3.40;;;13.10;99.90;;;;;;5016294;28;20077;-66
2022/05/24 00:18:09;;;;;;;5.90;2.72;;;13.10;99.90;;;;;;5016959;28;20030;-65
2022/05/24 00:20:59;;;;;;;5.93;2.70;;;13.00;99.90;;;;;;4999921;28;20045;-68
2022/05/24 00:23:28;;;;;;;10.30;2.55;;;13.00;99.90;;;;;;5016949;28;20310;-67
2022/05/24 00:25:56;;;;;;;9.07;2.70;;;13.00;99.90;;;;;;5016991;28;20025;-67
2022/05/24 00:28:25;;;;;;;7.75;2.72;;;12.90;99.90;;;;;;5016995;28;20182;-66
2022/05/24 00:30:51;;;;;;;8.95;2.75;;;12.90;99.90;;;;;;5016153;28;20026;-66
2022/05/24 00:33:18;;;;;;;9.90;2.97;;;12.80;99.90;;;;;;5016100;28;20037;-68
2022/05/24 00:35:45;;;;;;;8.30;2.67;;;12.80;99.90;;;;;;5016914;28;20030;-66
2022/05/24 00:38:13;;;;;;;10.93;3.00;;;12.80;99.90;;;;;;5016043;28;20440;-67
2022/05/24 00:40:45;;;;;;;7.15;2.67;;;12.70;99.90;;;;;;4999654;28;20045;-67
2022/05/24 00:43:32;;;;;;;8.93;3.13;;;12.80;99.90;;;;;;5016757;28;20025;-67
2022/05/24 00:46:07;;;;;;;11.55;2.83;;;12.70;99.90;;;;;;5016081;28;20104;-67
2022/05/24 00:48:40;;;;;;;8.00;2.13;;;12.60;99.90;;;;;;5019614;28;20365;-66
2022/05/24 00:51:10;;;;;;;7.32;2.40;;;12.60;99.90;;;;;;5020539;28;20378;-67
2022/05/24 00:53:42;;;;;;;8.63;3.08;;;12.60;99.90;;;;;;5019766;28;20069;-67
2022/05/24 00:56:17;;;;;;;5.78;2.20;;;12.60;99.90;;;;;;5019725;28;20279;-68
2022/05/24 00:58:56;;;;;;;7.05;2.25;;;12.60;99.90;;;;;;5020569;28;20030;-67
2022/05/24 01:01:39;;;;;;;7.43;2.28;;;12.60;99.90;;;;;;5003090;28;20409;-65
2022/05/24 01:04:06;;;;;;;;;;;12.60;99.90;;;;;;5020862;28;20065;-67
2022/05/24 01:06:32;;;;;;;9.68;2.38;;;12.60;99.90;;;;;;5019597;28;20178;-66
2022/05/24 01:09:01;;;;;;;8.18;2.88;;;12.60;99.90;;;;;;5019509;28;20057;-66
2022/05/24 01:11:30;;;;;;;6.93;2.28;;;12.50;99.90;;;;;;5019426;28;20033;-66
2022/05/24 01:13:57;;;;;;;7.40;2.40;;;12.50;99.90;;;;;;5019388;28;20029;-66
2022/05/24 01:16:23;;;;;;;10.10;2.53;;;12.50;99.90;;;;;;5019267;28;20030;-67
2022/05/24 01:18:49;;;;;;;8.98;2.30;;;12.50;99.90;;;;;;5019449;28;20120;-65
2022/05/24 01:21:16;;;;;;;8.57;2.47;;;12.50;99.90;;;;;;5019286;28;20069;-65
2022/05/24 01:24:35;;;;;;;11.18;2.95;;;12.60;99.90;;;;;;5019169;28;20026;-64
2022/05/24 01:27:02;;;;;;;11.15;2.60;;;12.50;99.90;;;;;;5015317;28;20053;-65
2022/05/24 01:29:28;;;;;;;6.75;2.50;;;12.50;99.90;;;;;;5019725;28;20042;-64
2022/05/24 01:37:27;;;;;;;9.63;2.65;;;12.40;99.90;;;;;;5019915;28;20332;-64
2022/05/24 01:39:55;;;;;;;6.28;2.85;;;12.40;99.90;;;;;;5019623;28;20411;-64
2022/05/24 01:42:23;;;;;;;13.15;3.17;;;12.30;99.90;;;;;;5018813;28;20033;-64
2022/05/24 01:44:54;;;;;;;6.50;2.40;;;12.30;99.90;;;;;;5019545;28;20030;-65
2022/05/24 01:47:22;;;;;;;8.05;2.65;;;12.30;99.90;;;;;;5018781;28;20041;-65
2022/05/24 01:49:53;;;;;;;7.10;2.13;;;12.20;99.90;;;;;;5002706;28;20084;-64
2022/05/24 01:52:24;;;;;;;8.05;2.70;;;12.20;99.90;;;;;;5019277;28;20030;-64
2022/05/24 01:54:55;;;;;;;8.95;2.80;;;12.30;99.90;;;;;;5019989;28;20041;-65
2022/05/24 01:57:26;;;;;;;7.18;2.13;;;12.30;99.90;;;;;;5018596;28;20386;-65
2022/05/24 01:59:54;;;;;;;11.90;2.80;;;12.30;99.90;;;;;;5018070;28;20042;-64
2022/05/24 02:02:20;;;;;;;5.65;2.20;;;12.10;99.90;;;;;;5019176;28;20404;-64
2022/05/24 02:04:46;;;;;;;9.57;2.55;;;12.20;99.90;;;;;;5018522;28;20049;-64
2022/05/24 02:07:15;;;;;;;10.88;2.50;;;12.20;99.90;;;;;;5002031;28;20038;-64
2022/05/24 02:09:43;;;;;;;11.95;2.45;;;12.30;99.90;;;;;;5019145;28;20084;-64
2022/05/24 02:12:28;;;;;;;10.35;2.70;;;12.20;99.90;;;;;;5018113;28;20318;-65
2022/05/24 02:15:05;;;;;;;9.27;2.60;;;12.30;99.90;;;;;;5001893;28;20344;-65
2022/05/24 02:17:58;;;;;;;9.35;2.50;;;12.20;99.90;;;;;;5018105;28;20092;-65
2022/05/24 02:20:28;;;;;;;12.02;2.58;;;12.10;99.90;;;;;;5018213;28;20037;-64
2022/05/24 02:22:54;;;;;;;9.98;2.78;;;12.10;99.90;;;;;;5018901;28;20123;-64
2022/05/24 02:25:23;;;;;;;7.75;2.55;;;12.10;99.90;;;;;;5018706;28;20069;-64
2022/05/24 02:27:51;;;;;;;9.70;2.63;;;12.20;99.90;;;;;;5018803;28;20049;-64
2022/05/24 02:30:23;;;;;;;9.48;2.78;;;12.20;99.90;;;;;;5018052;28;20044;-64
2022/05/24 02:32:49;;;;;;;6.70;2.60;;;12.30;99.90;;;;;;5018611;28;20302;-65
2022/05/24 02:35:15;;;;;;;7.32;2.38;;;12.30;99.90;;;;;;5018858;28;20113;-65
2022/05/24 02:37:41;;;;;;;7.63;2.45;;;12.40;99.90;;;;;;5001517;28;20421;-64
2022/05/24 02:42:53;;;;;;;8.68;2.10;;;12.60;99.90;;;;;;5018427;28;20445;-65
2022/05/24 02:45:19;;;;;;;7.28;2.15;;;12.60;99.90;;;;;;5018281;28;20121;-65
2022/05/24 02:47:45;;;;;;;6.07;1.83;;;12.40;99.90;;;;;;5017543;28;20120;-64
2022/05/24 02:50:11;;;;;;;8.18;2.17;;;12.40;99.90;;;;;;5017730;28;20128;-65
2022/05/24 02:52:38;;;;;;;14.40;2.20;;;12.40;99.90;;;;;;5018406;28;20307;-65
2022/05/24 02:55:05;;;;;;;6.95;2.00;;;12.30;99.90;;;;;;5018840;28;20131;-65
2022/05/24 02:57:32;;;;;;;11.60;2.30;;;12.30;99.90;;;;;;5018237;28;20022;-64
2022/05/24 02:59:58;;;;;;;6.57;2.03;;;12.30;99.90;;;;;;5018078;28;20169;-65
2022/05/24 03:02:24;;;;;;;7.88;1.92;;;12.40;99.90;;;;;;4984942;28;20030;-66
2022/05/24 03:04:50;;;;;;;8.43;1.80;;;12.40;99.90;;;;;;5018099;28;20048;-64
2022/05/24 03:10:26;;;;;;;7.43;1.70;;;12.40;99.90;;;;;;5017531;28;20048;-64
2022/05/24 03:15:39;;;;;;;8.95;2.00;;;12.30;99.90;;;;;;5017432;28;20038;-68
2022/05/24 03:18:06;;;;;;;7.88;1.83;;;12.40;99.90;;;;;;5017125;28;20030;-65
2022/05/24 03:20:33;;;;;;;8.90;2.03;;;12.50;99.90;;;;;;5017100;28;20433;-67
2022/05/24 03:23:00;;;;;;;7.80;2.05;;;12.40;99.90;;;;;;5017000;28;20044;-65
2022/05/24 03:25:26;;;;;;;6.43;1.73;;;12.30;99.90;;;;;;5017675;28;20049;-64
2022/05/24 03:27:53;;;;;;;4.55;1.73;;;12.30;99.90;;;;;;5000873;28;20042;-64
2022/05/24 03:30:18;;;;;;;10.00;2.40;;;12.30;99.90;;;;;;5016795;28;20361;-67
2022/05/24 03:32:44;;;;;;;4.72;1.67;;;12.40;99.90;;;;;;5000497;28;20058;-68
2022/05/24 03:35:14;;;;;;;6.70;1.70;;;12.40;99.90;;;;;;5016815;28;20049;-66
2022/05/24 03:37:41;;;;;;;8.02;2.00;;;12.50;99.90;;;;;;5017657;28;20069;-68
2022/05/24 03:40:09;;;;;;;6.60;1.83;;;12.50;99.90;;;;;;5016676;28;20034;-67
2022/05/24 03:42:35;;;;;;;9.98;1.88;;;12.60;99.90;;;;;;5017335;28;20042;-66
2022/05/24 03:45:03;;;;;;;8.10;1.73;;;12.70;99.90;;;;;;5000225;28;20137;-69
2022/05/24 03:47:29;;;;;;;6.32;1.35;;;12.70;99.90;;;;;;5016440;28;20029;-68
2022/05/24 03:49:54;;;;;;;9.85;1.98;;;12.90;99.90;;;;;;5000322;28;20025;-67
2022/05/24 03:52:20;;;;;;;6.90;2.25;;;12.70;99.90;;;;;;5000072;28;20172;-68
2022/05/24 03:54:46;;;;;;;6.45;1.70;;;12.50;99.90;;;;;;5017094;28;20030;-67
2022/05/24 03:59:56;;;;;;;4.47;1.95;;;12.50;99.90;;;;;;5017090;28;20054;-65
2022/05/24 04:02:22;;;;;;;10.32;2.03;;;12.50;99.90;;;;;;5016985;28;20328;-64
2022/05/24 04:04:48;;;;;;;6.22;1.40;;;12.30;99.90;;;;;;5017386;28;20033;-66
2022/05/24 04:07:14;;;;;;;8.50;1.92;;;12.30;99.90;;;;;;5016113;28;20033;-66
2022/05/24 04:09:40;;;;;;;6.22;1.52;;;12.30;99.90;;;;;;5016161;28;20042;-68
2022/05/24 04:12:07;;;;;;;8.90;1.77;;;12.40;99.90;;;;;;5017203;28;20306;-66
2022/05/24 04:14:33;;;;;;;8.38;1.40;;;12.40;99.90;;;;;;5016701;28;20037;-69
2022/05/24 04:16:59;;;;;;;9.23;1.52;;;12.50;99.90;;;;;;4999998;28;20305;-66
2022/05/24 04:19:26;;;;;;;5.18;1.38;;;12.50;99.90;;;;;;5016217;28;20117;-64
2022/05/24 04:21:52;;;;;;;7.75;1.60;;;12.40;99.90;;;;;;5017203;28;20022;-64
2022/05/24 04:24:18;;;;;;;6.68;1.50;;;12.30;99.90;;;;;;5021012;28;20121;-65
2022/05/24 04:26:46;;;;;;;4.72;1.73;;;12.20;99.90;;;;;;5020149;28;20042;-65
2022/05/24 04:29:12;;;;;;;9.40;1.50;;;12.20;99.90;;;;;;5020721;28;20433;-66
2022/05/24 04:31:39;;;;;;;6.13;1.27;;;12.20;99.90;;;;;;5020381;28;20038;-66
2022/05/24 04:34:07;;;;;;;7.60;1.13;;;12.20;99.90;;;;;;5020195;28;20026;-65
2022/05/24 04:36:33;;;;;;;5.68;1.20;;;12.20;99.90;;;;;;4987710;28;20050;-65
2022/05/24 04:38:59;;;;;;;7.75;1.50;;;12.10;99.90;;;;;;5020672;28;20467;-65
2022/05/24 04:44:10;;;;;;;6.13;1.40;;;12.20;99.90;;;;;;5020228;28;20397;-66
2022/05/24 04:49:22;;;;;;;7.63;1.75;;;12.10;99.90;;;;;;5020465;28;20030;-65
2022/05/24 04:51:48;;;;;;;12.90;1.58;;;12.00;99.90;;;;;;5020443;28;20040;-65
2022/05/24 04:54:14;;;;;;;7.03;1.30;;;12.00;99.90;;;;;;5003440;28;20105;-65
2022/05/24 04:56:40;;;;;;;8.25;1.73;;;12.00;99.90;;;;;;5020698;28;20113;-65
2022/05/24 04:59:05;;;;;;;7.97;1.40;;;12.00;99.90;;;;;;5019576;28;20129;-65
2022/05/24 05:01:31;;;;;;;7.15;1.48;;;12.00;99.90;;;;;;5000543;28;20431;-65
2022/05/24 05:03:57;;;;;;;9.50;1.45;;;12.10;99.90;;;;;;4983711;28;20378;-65
2022/05/24 05:06:23;;;;;;;6.60;1.48;;;12.00;99.90;;;;;;4999847;28;20034;-65
2022/05/24 05:08:48;;;;;;;6.47;1.30;;;12.00;99.90;;;;;;5000984;28;20090;-71
2022/05/24 05:11:14;;;;;;;7.20;1.25;;;12.00;99.90;;;;;;5000558;28;20110;-64
2022/05/24 05:13:41;;;;;;;6.82;1.35;;;12.00;99.90;;;;;;5000284;28;20039;-63
2022/05/24 05:16:07;;;;;;;6.22;1.55;;;12.10;99.90;;;;;;5000245;28;20042;-62
2022/05/24 05:18:33;;;;;;;8.00;1.60;;;12.30;99.90;;;;;;5000308;28;20030;-64
2022/05/24 05:21:00;;;;;;;7.60;1.67;;;12.30;99.90;;;;;;4983421;28;20042;-65
2022/05/24 05:23:26;;;;;;;6.15;1.60;;;12.20;99.90;;;;;;4999573;28;20386;-63
2022/05/24 05:25:52;;;;;;;6.50;1.45;;;12.20;99.90;;;;;;5000387;28;20034;-65
2022/05/24 05:28:19;;;;;;;6.57;1.70;;;12.20;99.90;;;;;;4999352;28;20034;-63
2022/05/24 05:33:32;;;;;;;8.30;1.73;;;12.30;99.90;;;;;;4998797;28;20034;-65
2022/05/24 05:35:59;;;;;;;7.10;1.55;;;12.40;99.90;;;;;;4982910;28;20030;-62
2022/05/24 05:38:25;;;;;;;7.35;1.67;;;12.40;99.90;;;;;;4999886;28;20110;-69
2022/05/24 05:40:53;;;;;;;6.43;1.88;;;12.40;99.90;;;;;;4999046;28;20097;-65
2022/05/24 05:43:21;;;;;;;9.57;1.70;;;12.50;99.90;;;;;;4999768;28;20037;-64
2022/05/24 05:45:58;;;;;;;6.15;1.40;;;12.60;99.90;;;;;;4999584;28;20303;-69
2022/05/24 05:48:25;;;;;;;11.68;1.77;;;12.60;99.90;;;;;;4999827;28;20410;-67
2022/05/24 05:50:50;;;;;;;8.23;1.67;;;12.80;99.90;;;;;;4999572;28;20034;-66
2022/05/24 05:53:18;;;;;;;5.65;1.55;;;12.80;99.90;;;;;;4998748;28;20409;-66
2022/05/24 05:55:44;;;;;;;8.80;2.05;;;12.70;99.90;;;;;;4998621;28;20026;-65
2022/05/24 05:58:11;;;;;;;8.60;2.05;;;12.80;99.90;;;;;;4999514;28;20049;-66
2022/05/24 06:00:38;;;;;;;7.97;2.00;;;13.00;99.90;;;;;;5010607;28;20090;-66
2022/05/24 06:03:04;;;;;;;11.38;2.25;;;13.20;99.90;;;;;;5018292;28;20095;-67
2022/05/24 06:05:29;;;;;;;5.60;1.30;;;13.10;99.90;;;;;;5002069;28;20030;-67
2022/05/24 06:07:59;;;;;;;6.28;2.13;;;13.20;99.90;;;;;;5018997;28;20041;-64
2022/05/24 06:10:26;;;;;;;5.68;1.52;;;13.30;99.90;;;;;;5018713;28;20026;-67
2022/05/24 06:12:52;;;;;;;5.90;1.25;;;13.50;99.90;;;;;;5018689;28;20117;-67
2022/05/24 06:15:19;;;;;;;5.15;1.77;;;13.60;99.90;;;;;;5018755;28;20050;-66
2022/05/24 06:17:48;;;;;;;3.45;1.40;;;13.80;99.90;;;;;;5001796;28;20168;-66
2022/05/24 06:20:23;;;;;;;4.53;1.60;;;13.80;99.90;;;;;;5018736;28;20099;-62
2022/05/24 06:22:49;;;;;;;5.38;1.30;;;13.90;99.90;;;;;;5017820;28;20467;-65
2022/05/24 06:25:20;;;;;;;3.97;1.10;;;13.80;99.90;;;;;;5001475;28;20120;-66
2022/05/24 06:27:46;;;;;;;3.70;1.10;;;14.10;99.90;;;;;;5018951;28;20034;-63
2022/05/24 06:30:12;;;;;;;5.30;1.30;;;13.90;99.90;;;;;;5018490;28;20039;-65
2022/05/24 06:32:38;;;;;;;5.05;1.05;;;14.10;99.90;;;;;;5017529;28;20052;-66
2022/05/24 06:35:06;;;;;;;5.45;1.30;;;14.00;99.90;;;;;;5017611;28;20081;-64
2022/05/24 06:37:32;;;;;;;6.43;1.30;;;14.30;99.90;;;;;;5017620;28;20297;-63
2022/05/24 06:39:58;;;;;;;5.47;0.93;;;14.10;99.90;;;;;;5017513;28;20034;-60
2022/05/24 06:42:24;;;;;;;3.65;0.95;;;13.90;99.90;;;;;;5017915;28;20048;-64
2022/05/24 06:44:50;;;;;;;1.83;0.85;;;14.10;99.90;;;;;;5018347;28;20041;-67
2022/05/24 06:47:16;;;;;;;4.68;1.10;;;14.40;99.90;;;;;;5018455;28;20034;-67
2022/05/24 06:49:42;;;;;;;2.60;0.70;;;14.60;99.90;;;;;;5018239;28;20302;-68
2022/05/24 06:52:08;;;;;;;5.13;0.90;;;14.60;99.90;;;;;;5018170;28;20056;-62
2022/05/24 06:54:35;;;;;;;4.40;0.70;;;14.20;99.90;;;;;;5018137;28;20045;-70
2022/05/24 06:57:02;;;;;;;3.70;0.70;;;13.80;99.90;;;;;;5017302;28;20041;-61
2022/05/24 07:02:27;;;;;;;5.47;0.90;;;13.90;99.90;;;;;;5017620;28;20117;-60
2022/05/24 07:05:01;;;;;;;6.05;1.30;;;14.00;99.90;;;;;;5017118;28;20248;-65
2022/05/24 07:07:30;;;;;;;7.70;1.17;;;13.90;99.90;;;;;;5017676;28;20120;-62
2022/05/24 07:09:56;;;;;;;3.95;0.90;;;14.10;99.90;;;;;;5017133;28;20048;-67
2022/05/24 07:12:23;;;;;;;3.88;0.77;;;14.30;99.90;;;;;;5017127;28;20033;-62
2022/05/24 07:14:49;;;;;;;2.53;0.70;;;14.50;99.90;;;;;;5017900;28;20041;-65
2022/05/24 07:17:17;;;;;;;2.20;0.77;;;14.90;99.90;;;;;;5017049;28;20030;-64
2022/05/24 07:19:44;;;;;;;2.63;0.63;;;14.90;99.90;;;;;;5017870;28;20349;-66
2022/05/24 07:22:10;;;;;;;3.17;0.65;;;14.90;99.90;;;;;;5016850;28;20026;-63
2022/05/24 07:24:36;;;;;;;4.97;0.60;;;14.50;99.90;;;;;;5000625;28;20033;-68
2022/05/24 07:27:04;;;;;;;3.08;0.65;;;14.60;99.90;;;;;;5017500;28;20350;-63
2022/05/24 07:29:33;;;;;;;3.58;0.50;;;14.80;99.90;;;;;;5017505;28;20033;-65
2022/05/24 07:32:00;;;;;;;3.22;0.70;;;14.90;99.90;;;;;;5017546;28;20068;-66
2022/05/24 07:34:26;;;;;;;3.45;0.60;;;15.00;99.90;;;;;;5017588;28;20402;-66
2022/05/24 07:36:52;;;;;;;4.38;0.77;;;15.00;99.90;;;;;;5017670;28;20037;-64
2022/05/24 07:39:18;;;;;;;1.77;0.65;;;15.10;99.90;;;;;;5017631;28;20095;-69
2022/05/24 07:47:13;;;;;;;3.78;0.70;;;15.10;99.90;;;;;;5017430;28;20033;-69
2022/05/24 07:49:39;;;;;;;2.20;0.68;;;15.30;99.90;;;;;;5017387;28;20026;-64
2022/05/24 07:52:05;;;;;;;1.85;0.50;;;15.20;99.90;;;;;;5016308;28;20389;-60
2022/05/24 07:54:34;;;;;;;2.72;0.50;;;15.10;99.90;;;;;;5016452;28;20077;-63
2022/05/24 07:57:01;;;;;;;1.77;0.60;;;15.10;99.90;;;;;;5016690;28;20049;-62
2022/05/24 07:59:27;;;;;;;2.05;0.70;;;15.00;99.90;;;;;;5017071;28;20189;-64
2022/05/24 08:01:53;;;;;;;2.28;0.60;;;15.10;99.90;;;;;;5016951;28;20115;-67
2022/05/24 08:04:20;;;;;;;1.95;0.80;;;15.30;99.90;;;;;;5017148;28;20034;-63
2022/05/24 08:06:46;;;;;;;3.58;0.70;;;15.60;99.90;;;;;;5017149;28;20109;-61
2022/05/24 08:09:12;;;;;;;0.70;0.50;;;15.40;99.90;;;;;;5017090;28;20117;-69
2022/05/24 08:11:38;;;;;;;2.15;0.50;;;15.50;99.90;;;;;;5017160;28;20128;-66
2022/05/24 08:14:06;;;;;;;1.70;0.60;;;15.50;99.90;;;;;;4999878;28;20038;-62
2022/05/24 08:16:33;;;;;;;1.90;0.80;;;15.50;99.90;;;;;;5016898;28;20042;-67
2022/05/24 08:18:59;;;;;;;1.45;0.95;;;15.60;99.90;;;;;;5017000;28;20048;-63
2022/05/24 08:21:29;;;;;;;3.13;0.90;;;15.60;99.90;;;;;;5016736;28;20131;-63
2022/05/24 08:23:55;;;;;;;1.75;0.80;;;15.60;99.90;;;;;;5015955;28;20030;-59
2022/05/24 08:26:21;;;;;;;1.02;0.70;;;15.40;99.90;;;;;;5016799;28;20025;-66
2022/05/24 08:28:47;;;;;;;1.55;0.90;;;15.40;99.90;;;;;;4999842;28;20201;-64
2022/05/24 08:31:15;;;;;;;2.83;0.90;;;15.40;99.90;;;;;;5016203;28;20088;-64
2022/05/24 08:33:42;;;;;;;2.45;0.85;;;15.70;99.90;;;;;;5016817;28;20057;-62
2022/05/24 08:36:09;;;;;;;2.10;0.73;;;15.70;99.90;;;;;;5016690;28;20029;-63
2022/05/24 08:38:35;;;;;;;1.63;0.77;;;16.00;99.90;;;;;;5016815;28;20026;-63
2022/05/24 08:41:03;;;;;;;2.67;1.10;;;16.20;99.90;;;;;;5016366;28;20045;-61
2022/05/24 08:43:47;;;;;;;1.13;0.90;;;16.30;99.90;;;;;;5016659;28;20040;-68
2022/05/24 08:49:13;;;;;;;1.55;0.60;;;15.80;99.90;;;;;;5016753;28;20053;-62
2022/05/24 08:51:56;;;;;;;2.53;0.88;;;15.80;99.90;;;;;;5016498;28;20095;-62
2022/05/24 08:54:44;;;;;;;2.88;0.60;;;16.30;99.90;;;;;;5016716;28;20045;-60
2022/05/24 08:57:14;;;;;;;2.35;0.93;;;16.10;99.90;;;;;;5016625;28;20390;-66
2022/05/24 08:59:56;;;;;;;3.03;1.00;;;16.20;99.90;;;;;;5016438;28;20026;-69
2022/05/24 09:02:23;;;;;;;3.70;0.95;;;16.30;99.90;;;;;;5016509;28;20042;-69
2022/05/24 09:04:52;;;;;;;5.90;0.70;;;16.10;99.90;;;;;;5016497;28;20030;-66
2022/05/24 09:07:39;;;;;;;1.33;0.80;;;16.20;99.90;;;;;;4999408;28;20041;-66
2022/05/24 09:10:05;;;;;;;0.70;0.63;;;16.50;99.90;;;;;;5002923;28;20117;-63
2022/05/24 09:13:09;;;;;;;1.63;0.50;;;16.50;99.90;;;;;;5020247;28;20470;-65
2022/05/24 09:16:10;;;;;;;5.57;0.80;;;16.70;99.90;;;;;;5003048;28;20022;-64
2022/05/24 09:18:48;;;;;;;1.83;0.60;;;16.80;99.90;;;;;;5019339;28;20021;-62
2022/05/24 09:21:42;;;;;;;2.20;0.77;;;16.60;99.90;;;;;;5019364;28;20080;-60
2022/05/24 09:24:16;;;;;;;3.08;0.60;;;16.40;99.90;;;;;;5017162;28;20063;-65
2022/05/24 09:27:07;;;;;;;3.63;0.73;;;16.30;99.90;;;;;;5019797;28;20072;-64
2022/05/24 09:29:35;;;;;;;3.58;0.65;;;16.40;99.90;;;;;;5019796;28;20049;-65
2022/05/24 09:32:09;;;;;;;2.80;0.63;;;16.70;99.90;;;;;;5018912;28;20033;-68
2022/05/24 09:34:38;;;;;;;1.55;0.60;;;16.70;99.90;;;;;;5019782;28;20108;-66
2022/05/24 09:37:09;;;;;;;1.60;0.40;;;16.80;99.90;;;;;;5018852;28;20033;-65
2022/05/24 09:39:41;;;;;;;2.03;0.50;;;16.80;99.90;;;;;;5020200;28;20033;-68
2022/05/24 09:42:23;;;;;;;1.75;0.50;;;17.10;99.90;;;;;;5019390;28;20045;-66
2022/05/24 09:44:56;;;;;;;1.63;0.70;;;17.10;99.90;;;;;;5018888;28;20061;-65
2022/05/24 09:47:32;;;;;;;1.65;0.65;;;17.10;99.90;;;;;;5018735;28;20038;-66
2022/05/24 09:50:29;;;;;;;3.00;0.50;;;17.10;99.90;;;;;;5019391;28;20041;-65
2022/05/24 09:53:16;;;;;;;3.33;0.70;;;17.40;99.90;;;;;;5019335;28;20037;-65
2022/05/24 09:55:55;;;;;;;1.17;0.70;;;17.40;99.90;;;;;;5019642;28;20026;-63
2022/05/24 09:58:29;;;;;;;1.23;0.40;;;17.70;99.90;;;;;;5019365;28;20040;-65
2022/05/24 10:01:26;;;;;;;3.00;0.52;;;17.70;99.90;;;;;;5018972;28;20054;-64
2022/05/24 10:03:51;;;;;;;2.38;0.40;;;17.60;99.90;;;;;;5019824;28;20133;-69
2022/05/24 10:06:25;;;;;;;2.67;0.50;;;18.00;99.90;;;;;;5018307;28;20050;-67
2022/05/24 10:08:54;;;;;;;1.35;0.50;;;18.30;99.90;;;;;;5018818;28;20025;-63
2022/05/24 10:11:47;;;;;;;1.38;0.55;;;18.20;99.90;;;;;;5018827;28;20034;-61
2022/05/24 10:14:46;;;;;;;4.07;0.65;;;17.50;99.90;;;;;;5018782;28;20033;-62
2022/05/24 10:17:27;;;;;;;2.25;0.60;;;17.50;99.90;;;;;;5018033;28;20040;-64
2022/05/24 10:20:18;;;;;;;0.88;0.40;;;17.90;99.90;;;;;;5018501;28;20100;-67
2022/05/24 10:22:55;;;;;;;4.68;0.55;;;17.50;99.90;;;;;;5017887;28;20041;-64
2022/05/24 10:25:31;;;;;;;3.75;0.60;;;17.80;99.90;;;;;;5017958;28;20073;-61
2022/05/24 10:28:20;;;;;;;1.15;0.45;;;17.70;99.90;;;;;;5018626;28;20117;-66
2022/05/24 10:31:23;;;;;;;2.75;0.60;;;17.80;99.90;;;;;;5018674;28;20084;-62
2022/05/24 10:39:49;;;;;;;3.42;0.50;;;17.20;99.90;;;;;;5018464;28;20378;-61
2022/05/24 10:42:43;;;;;;;0.90;0.50;;;17.30;99.90;;;;;;5018490;28;20116;-59
2022/05/24 10:45:18;;;;;;;0.93;0.50;;;17.30;99.90;;;;;;5018239;28;20144;-63
2022/05/24 10:48:01;;;;;;;0.82;0.30;;;17.50;99.90;;;;;;5018279;28;20026;-66
2022/05/24 10:50:36;;;;;;;2.38;0.47;;;17.90;99.90;;;;;;5017622;28;20371;-68
2022/05/24 10:53:13;;;;;;;0.82;0.30;;;18.10;99.90;;;;;;5018702;28;20030;-69
2022/05/24 10:56:15;;;;;;;0.75;0.32;;;18.40;99.90;;;;;;5017619;28;20038;-64
2022/05/24 10:58:42;;;;;;;1.13;0.40;;;18.30;99.90;;;;;;5008552;28;20405;-66
2022/05/24 11:01:29;;;;;;;2.10;0.30;;;18.20;99.90;;;;;;5018119;28;20050;-65
2022/05/24 11:04:04;;;;;;;1.27;0.30;;;18.60;99.90;;;;;;5018656;28;20298;-69
2022/05/24 11:06:39;;;;;;;0.80;0.22;;;18.60;99.90;;;;;;5017377;28;20111;-64
2022/05/24 11:09:18;;;;;;;0.85;0.20;;;19.10;99.90;;;;;;5017275;28;20030;-65
2022/05/24 11:11:53;;;;;;;0.77;0.30;;;18.80;99.90;;;;;;5018052;28;20305;-68
2022/05/24 11:14:47;;;;;;;2.13;0.40;;;18.30;99.90;;;;;;5000849;28;20427;-66
2022/05/24 11:17:16;;;;;;;0.95;0.60;;;17.50;99.90;;;;;;5017426;28;20044;-64
2022/05/24 11:19:45;;;;;;;9.80;1.48;;;16.20;99.90;;;;;;5017786;28;20414;-66
2022/05/24 11:22:27;;;;;;;4.47;1.67;;;15.00;99.90;;;;;;5000644;28;20043;-67
2022/05/24 11:25:11;;;;;;;3.15;0.85;;;14.60;99.90;;;;;;5017966;28;20033;-63
2022/05/24 11:27:51;;;;;;;1.60;0.63;;;14.30;99.90;;;;;;5017627;28;20049;-66
2022/05/24 11:30:34;;;;;;;1.85;0.70;;;14.00;99.90;;;;;;5017627;28;20298;-66
2022/05/24 11:33:03;;;;;;;2.20;0.93;;;13.60;99.90;;;;;;5016761;28;20034;-70
2022/05/24 11:35:36;;;;;;;1.70;1.10;;;13.30;99.90;;;;;;5016910;28;20322;-68
2022/05/24 11:38:21;;;;;;;2.78;1.45;;;13.20;99.90;;;;;;5017618;28;20030;-66
2022/05/24 11:41:02;;;;;;;2.55;0.90;;;13.50;99.90;;;;;;5016667;28;20283;-71
2022/05/24 11:43:38;;;;;;;2.38;0.90;;;14.00;99.90;;;;;;5017505;28;20046;-65
2022/05/24 11:46:10;;;;;;;2.92;0.80;;;14.80;99.90;;;;;;5017360;28;20042;-64
2022/05/24 11:48:54;;;;;;;1.90;0.70;;;15.90;99.90;;;;;;5017451;28;20076;-71
2022/05/24 11:51:29;;;;;;;2.05;0.63;;;16.60;99.90;;;;;;5017422;28;20054;-68
2022/05/24 11:53:55;;;;;;;1.10;0.50;;;17.30;99.90;;;;;;5000133;28;20132;-68
2022/05/24 11:56:24;;;;;;;4.07;0.73;;;18.70;99.90;;;;;;5016774;28;20034;-63
2022/05/24 11:59:04;;;;;;;2.42;0.50;;;19.80;99.90;;;;;;5017224;28;20040;-71
2022/05/24 12:01:35;;;;;;;1.80;0.50;;;20.70;99.90;;;;;;5017131;28;20045;-66
2022/05/24 12:10:03;;;;;;;1.50;0.50;;;20.40;99.90;;;;;;5016382;28;20038;-68
2022/05/24 12:12:58;;;;;;;2.60;0.40;;;21.30;99.90;;;;;;5016904;28;20030;-69
2022/05/24 12:15:49;;;;;;;3.03;0.57;;;23.60;99.90;;;;;;4993910;28;20041;-69
2022/05/24 12:18:18;;;;;;;2.55;0.60;;;25.40;99.90;;;;;;5012492;28;20038;-69
2022/05/24 12:20:44;;;;;;;1.33;0.43;;;25.20;99.90;;;;;;5017680;28;20052;-68
2022/05/24 12:23:19;;;;;;;2.30;0.57;;;25.40;99.90;;;;;;5016932;28;20301;-68
2022/05/24 12:25:58;;;;;;;1.00;0.38;;;24.10;99.90;;;;;;5016258;28;20026;-62
2022/05/24 12:28:48;;;;;;;2.95;0.50;;;23.50;99.90;;;;;;5017008;28;20040;-68
2022/05/24 12:31:16;;;;;;;2.08;0.52;;;22.00;99.90;;;;;;5016962;28;20029;-67
2022/05/24 12:33:59;;;;;;;1.33;0.52;;;21.00;99.90;;;;;;5016865;28;20034;-67
2022/05/24 12:36:40;;;;;;;1.08;0.50;;;20.00;99.90;;;;;;5017044;28;20030;-67
2022/05/24 12:39:09;;;;;;;2.08;0.50;;;19.20;99.90;;;;;;5016358;28;20467;-68
2022/05/24 12:41:37;;;;;;;2.85;0.60;;;18.50;99.90;;;;;;5016077;28;20026;-66
2022/05/24 12:44:13;;;;;;;1.58;0.57;;;18.10;99.90;;;;;;5019083;28;20097;-67
2022/05/24 12:46:40;;;;;;;2.67;0.63;;;18.00;99.90;;;;;;5020837;28;20048;-68
2022/05/24 12:49:09;;;;;;;1.15;0.60;;;18.30;99.90;;;;;;5020594;28;20069;-65
2022/05/24 12:51:37;;;;;;;2.35;0.45;;;18.30;99.90;;;;;;5020590;28;20111;-65
2022/05/24 12:54:15;;;;;;;1.15;0.40;;;19.70;99.90;;;;;;5020565;28;20037;-65
2022/05/24 12:56:54;;;;;;;2.08;0.50;;;21.60;99.90;;;;;;5020816;28;20112;-69
2022/05/24 12:59:34;;;;;;;3.10;0.40;;;21.10;99.90;;;;;;5020713;28;20108;-64
2022/05/24 13:02:18;;;;;;;0.60;0.30;;;20.40;99.90;;;;;;5019579;28;20072;-64
2022/05/24 13:04:45;;;;;;;1.00;0.40;;;19.80;99.90;;;;;;5020405;28;20115;-67
2022/05/24 13:07:51;;;;;;;1.77;0.50;;;18.60;99.90;;;;;;5005279;28;20045;-66
2022/05/24 13:10:22;;;;;;;0.60;0.40;;;18.20;99.90;;;;;;5020992;28;20033;-66
2022/05/24 13:13:13;;;;;;;4.68;0.77;;;18.30;99.90;;;;;;5020097;28;20026;-69
2022/05/24 13:15:45;;;;;;;2.28;0.60;;;17.80;99.90;;;;;;5020331;28;20034;-65
2022/05/24 13:18:17;;;;;;;1.65;0.60;;;17.60;99.90;;;;;;5019496;28;20025;-65
2022/05/24 13:20:55;;;;;;;2.47;0.57;;;17.60;99.90;;;;;;5020290;28;20030;-67
2022/05/24 13:23:39;;;;;;;3.30;0.68;;;17.90;99.90;;;;;;5019353;28;20044;-66
2022/05/24 13:26:05;;;;;;;2.88;0.80;;;18.00;99.90;;;;;;5020005;28;20111;-66
2022/05/24 13:28:52;;;;;;;1.15;0.50;;;18.00;99.90;;;;;;5019390;28;20397;-68
2022/05/24 13:34:12;;;;;;;4.05;0.60;;;17.40;99.90;;;;;;5019918;28;20081;-67
2022/05/24 13:36:51;;;;;;;1.67;0.45;;;17.60;99.90;;;;;;5019825;28;20038;-66
2022/05/24 13:39:28;;;;;;;1.85;0.50;;;19.60;99.90;;;;;;5019900;28;20037;-67
2022/05/24 13:42:08;;;;;;;1.10;0.30;;;20.90;99.90;;;;;;5019734;28;20038;-65
2022/05/24 13:44:35;;;;;;;1.67;0.40;;;21.20;99.90;;;;;;5019709;28;20033;-62
2022/05/24 13:47:23;;;;;;;1.48;0.50;;;21.00;99.90;;;;;;5018850;28;20033;-62
2022/05/24 13:49:50;;;;;;;1.20;0.40;;;19.60;99.90;;;;;;5018840;28;20041;-67
2022/05/24 13:52:31;;;;;;;0.30;0.25;;;19.70;99.90;;;;;;5019684;28;20287;-64
2022/05/24 13:55:14;;;;;;;0.88;0.30;;;20.90;99.90;;;;;;5018592;28;20375;-63
2022/05/24 13:57:54;;;;;;;1.15;0.40;;;20.60;99.90;;;;;;5019246;28;20054;-67
2022/05/24 14:00:24;;;;;;;0.40;0.20;;;21.50;99.90;;;;;;5002004;28;20046;-64